Time;durP1;ratioP1;P1;durP2;ratioP2;P2;SDS_P1;SDS_P2;PMS_P1;PMS_P2;Temp;Humidity;BMP_temperature;BMP_pressure;BME280_temperature;BME280_humidity;BME280_pressure;Samples;Min_cycle;Max_cycle;Signal;HPM_P1;HPM_P2
2024/04/18 00:01:57;;;;;;;;;;;16.50;55.80;;;;;;5487819;26;20288;-76
2024/04/18 00:04:23;;;;;;;;;;;16.50;55.90;;;;;;5487649;26;19935;-76
2024/04/18 00:06:49;;;;;;;;;;;16.50;56.00;;;;;;5487585;26;19927;-76
2024/04/18 00:09:15;;;;;;;;;;;16.50;56.00;;;;;;5487801;26;19928;-76
2024/04/18 00:11:41;;;;;;;;;;;16.50;56.20;;;;;;5487944;26;20250;-76
2024/04/18 00:14:07;;;;;;;;;;;16.50;55.90;;;;;;5486466;26;20350;-75
2024/04/18 00:16:33;;;;;;;;;;;16.40;56.10;;;;;;5487635;26;19928;-76
2024/04/18 00:18:59;;;;;;;;;;;16.50;56.00;;;;;;5488029;26;19928;-76
2024/04/18 00:21:25;;;;;;;;;;;16.50;56.00;;;;;;5487839;26;19934;-76
2024/04/18 00:23:51;;;;;;;;;;;16.50;56.10;;;;;;5487510;26;19928;-76
2024/04/18 00:26:17;;;;;;;;;;;16.50;56.00;;;;;;5487866;26;19952;-76
2024/04/18 00:28:43;;;;;;;;;;;16.40;55.90;;;;;;5487924;26;19935;-76
2024/04/18 00:31:09;;;;;;;;;;;16.50;56.10;;;;;;5487261;26;20410;-76
2024/04/18 00:33:35;;;;;;;;;;;16.50;56.10;;;;;;5487597;26;20059;-76
2024/04/18 00:36:01;;;;;;;;;;;16.50;56.10;;;;;;5487268;26;19939;-76
2024/04/18 00:38:27;;;;;;;;;;;16.40;55.90;;;;;;5487370;26;19928;-76
2024/04/18 00:40:53;;;;;;;;;;;16.50;55.90;;;;;;5487563;26;19956;-76
2024/04/18 00:43:19;;;;;;;;;;;16.40;55.90;;;;;;5487060;26;19938;-76
2024/04/18 00:45:45;;;;;;;;;;;16.50;55.80;;;;;;5487003;26;20001;-76
2024/04/18 00:48:11;;;;;;;;;;;16.60;56.10;;;;;;5487183;26;19936;-76
2024/04/18 00:50:38;;;;;;;;;;;16.40;55.80;;;;;;5487484;26;20268;-75
2024/04/18 00:53:03;;;;;;;;;;;16.60;56.20;;;;;;5487076;26;19995;-76
2024/04/18 00:55:29;;;;;;;;;;;16.50;55.30;;;;;;5487319;26;19940;-76
2024/04/18 00:57:55;;;;;;;;;;;16.40;55.80;;;;;;5487218;26;19934;-76
2024/04/18 01:00:21;;;;;;;;;;;16.40;56.10;;;;;;5487083;26;19928;-76
2024/04/18 01:02:46;;;;;;;;;;;16.50;55.90;;;;;;5486974;26;19935;-76
2024/04/18 01:05:12;;;;;;;;;;;16.40;56.20;;;;;;5486896;26;19928;-76
2024/04/18 01:07:37;;;;;;;;;;;16.50;55.90;;;;;;5484515;26;19928;-76
2024/04/18 01:10:03;;;;;;;;;;;16.00;55.80;;;;;;5486718;26;19935;-76
2024/04/18 01:12:28;;;;;;;;;;;17.20;56.10;;;;;;5486487;26;19928;-76
2024/04/18 01:14:54;;;;;;;;;;;16.40;55.60;;;;;;5487029;26;20362;-76
2024/04/18 01:17:19;;;;;;;;;;;16.40;55.90;;;;;;5486348;26;19928;-76
2024/04/18 01:19:45;;;;;;;;;;;16.40;56.10;;;;;;5486466;26;19928;-75
2024/04/18 01:22:10;;;;;;;;;;;16.40;56.20;;;;;;5486351;26;19928;-76
2024/04/18 01:24:36;;;;;;;;;;;16.80;56.20;;;;;;5486300;26;19928;-76
2024/04/18 01:27:01;;;;;;;;;;;16.40;56.00;;;;;;5489344;26;19935;-76
2024/04/18 01:29:27;;;;;;;;;;;16.40;56.20;;;;;;5490051;26;20000;-76
2024/04/18 01:31:52;;;;;;;;;;;16.40;56.30;;;;;;5489964;26;19935;-76
2024/04/18 01:34:18;;;;;;;;;;;16.30;56.10;;;;;;5489947;26;19928;-76
2024/04/18 01:36:44;;;;;;;;;;;16.40;56.90;;;;;;5489826;26;20366;-75
2024/04/18 01:39:09;;;;;;;;;;;16.30;56.00;;;;;;5490209;26;19932;-75
2024/04/18 01:41:35;;;;;;;;;;;16.40;56.20;;;;;;5490053;26;19935;-76
2024/04/18 01:44:00;;;;;;;;;;;16.50;55.80;;;;;;5490659;26;19928;-76
2024/04/18 01:46:26;;;;;;;;;;;16.10;56.20;;;;;;5489889;26;19928;-76
2024/04/18 01:48:51;;;;;;;;;;;16.30;56.10;;;;;;5489901;26;19959;-76
2024/04/18 01:51:17;;;;;;;;;;;16.50;56.20;;;;;;5489887;26;19928;-76
2024/04/18 01:53:42;;;;;;;;;;;16.50;55.70;;;;;;5489882;26;19937;-76
2024/04/18 01:56:08;;;;;;;;;;;16.30;56.30;;;;;;5489826;26;20270;-76
2024/04/18 01:58:33;;;;;;;;;;;16.30;55.60;;;;;;5489734;26;19940;-76
2024/04/18 02:00:58;;;;;;;;;;;16.30;56.10;;;;;;5489594;26;19938;-76
2024/04/18 02:03:24;;;;;;;;;;;16.40;56.20;;;;;;5489854;26;19956;-76
2024/04/18 02:05:49;;;;;;;;;;;16.60;56.60;;;;;;5487425;26;19928;-76
2024/04/18 02:08:15;;;;;;;;;;;16.30;56.30;;;;;;5490165;26;19928;-76
2024/04/18 02:10:41;;;;;;;;;;;16.30;56.20;;;;;;5489748;26;19939;-76
2024/04/18 02:13:06;;;;;;;;;;;16.30;56.00;;;;;;5490535;26;19997;-76
2024/04/18 02:15:32;;;;;;;;;;;16.30;56.00;;;;;;5489696;26;19935;-76
2024/04/18 02:17:57;;;;;;;;;;;16.30;56.20;;;;;;5489713;26;20328;-76
2024/04/18 02:20:23;;;;;;;;;;;16.30;56.30;;;;;;5489705;26;19935;-76
2024/04/18 02:22:48;;;;;;;;;;;16.30;56.10;;;;;;5489672;26;20252;-74
2024/04/18 02:25:14;;;;;;;;;;;16.50;56.30;;;;;;5489494;26;19940;-75
2024/04/18 02:27:43;;;;;;;;;;;16.30;56.10;;;;;;5489228;26;19932;-75
2024/04/18 02:30:09;;;;;;;;;;;16.30;56.20;;;;;;5489585;26;20025;-76
2024/04/18 02:32:35;;;;;;;;;;;16.30;55.70;;;;;;5489280;26;19928;-76
2024/04/18 02:35:01;;;;;;;;;;;16.30;56.50;;;;;;5489475;26;19928;-76
2024/04/18 02:37:27;;;;;;;;;;;16.30;56.30;;;;;;5488503;26;19961;-76
2024/04/18 02:39:52;;;;;;;;;;;16.20;56.50;;;;;;5489280;26;19928;-75
2024/04/18 02:42:18;;;;;;;;;;;16.30;55.80;;;;;;5489645;26;19939;-74
2024/04/18 02:44:44;;;;;;;;;;;16.30;56.50;;;;;;5488858;26;19928;-74
2024/04/18 02:47:10;;;;;;;;;;;16.60;56.70;;;;;;5488596;26;19932;-74
2024/04/18 02:49:35;;;;;;;;;;;16.30;56.30;;;;;;5488712;26;19928;-74
2024/04/18 02:52:01;;;;;;;;;;;16.40;56.60;;;;;;5488711;26;19928;-74
2024/04/18 02:54:26;;;;;;;;;;;16.40;56.10;;;;;;5488737;26;19932;-74
2024/04/18 02:56:52;;;;;;;;;;;16.20;56.50;;;;;;5488935;26;20032;-74
2024/04/18 02:59:17;;;;;;;;;;;16.30;56.50;;;;;;5488953;26;19952;-74
2024/04/18 03:01:43;;;;;;;;;;;16.20;56.50;;;;;;5488517;26;19934;-74
2024/04/18 03:04:08;;;;;;;;;;;16.20;56.30;;;;;;5488953;26;19935;-74
2024/04/18 03:06:34;;;;;;;;;;;16.30;56.50;;;;;;5488313;26;20454;-74
2024/04/18 03:08:59;;;;;;;;;;;16.30;56.50;;;;;;5489096;26;20054;-74
2024/04/18 03:11:25;;;;;;;;;;;16.30;56.40;;;;;;5488826;26;20362;-74
2024/04/18 03:13:51;;;;;;;;;;;16.20;56.60;;;;;;5488347;26;19928;-74
2024/04/18 03:16:16;;;;;;;;;;;16.20;56.30;;;;;;5488427;26;19939;-74
2024/04/18 03:18:42;;;;;;;;;;;16.30;56.40;;;;;;5488460;26;19944;-74
2024/04/18 03:21:07;;;;;;;;;;;16.20;56.40;;;;;;5488640;26;19928;-74
2024/04/18 03:23:33;;;;;;;;;;;16.20;56.40;;;;;;5488417;26;19928;-74
2024/04/18 03:25:58;;;;;;;;;;;16.30;56.50;;;;;;5488383;26;19935;-74
2024/04/18 03:28:24;;;;;;;;;;;16.20;56.20;;;;;;5488446;26;19928;-74
2024/04/18 03:30:50;;;;;;;;;;;16.20;56.50;;;;;;5486463;26;19939;-74
2024/04/18 03:33:15;;;;;;;;;;;16.20;56.30;;;;;;5488316;26;19959;-74
2024/04/18 03:35:41;;;;;;;;;;;16.30;56.50;;;;;;5488034;26;19956;-74
2024/04/18 03:38:06;;;;;;;;;;;16.30;56.60;;;;;;5488990;26;19932;-74
2024/04/18 03:40:32;;;;;;;;;;;16.20;56.50;;;;;;5488192;26;19956;-74
2024/04/18 03:42:58;;;;;;;;;;;16.20;56.50;;;;;;5488178;26;20331;-74
2024/04/18 03:45:24;;;;;;;;;;;16.20;57.00;;;;;;5488265;26;19928;-74
2024/04/18 03:47:53;;;;;;;;;;;16.20;57.00;;;;;;5487835;26;19962;-74
2024/04/18 03:50:19;;;;;;;;;;;16.20;53.80;;;;;;5486562;26;19985;-74
2024/04/18 03:52:45;;;;;;;;;;;16.30;56.70;;;;;;5487818;26;19928;-74
2024/04/18 03:55:11;;;;;;;;;;;16.30;56.20;;;;;;5487683;26;19928;-74
2024/04/18 03:57:37;;;;;;;;;;;16.30;56.90;;;;;;5487761;26;20015;-74
2024/04/18 04:00:03;;;;;;;;;;;16.90;57.50;;;;;;5487808;26;19928;-74
2024/04/18 04:02:31;;;;;;;;;;;16.20;56.50;;;;;;5487699;26;20000;-74
2024/04/18 04:04:57;;;;;;;;;;;16.30;56.90;;;;;;5487382;26;19928;-75
2024/04/18 04:07:23;;;;;;;;;;;16.20;57.10;;;;;;5487591;26;19928;-74
2024/04/18 04:09:51;;;;;;;;;;;16.00;57.00;;;;;;5486664;26;20552;-74
2024/04/18 04:12:17;;;;;;;;;;;16.30;57.30;;;;;;5487455;26;19996;-74
2024/04/18 04:14:42;;;;;;;;;;;16.30;57.40;;;;;;5487410;26;19939;-74
2024/04/18 04:17:08;;;;;;;;;;;16.20;57.20;;;;;;5487453;26;19935;-74
2024/04/18 04:19:34;;;;;;;;;;;16.40;57.70;;;;;;5487573;26;19936;-74
2024/04/18 04:22:00;;;;;;;;;;;16.30;56.70;;;;;;5487228;26;19927;-74
2024/04/18 04:24:26;;;;;;;;;;;16.30;57.10;;;;;;5487223;26;19928;-74
2024/04/18 04:26:52;;;;;;;;;;;16.30;57.50;;;;;;5487009;26;20270;-75
2024/04/18 04:29:18;;;;;;;;;;;16.30;57.50;;;;;;5487175;26;19928;-74
2024/04/18 04:31:45;;;;;;;;;;;16.30;57.60;;;;;;5487119;26;20331;-74
2024/04/18 04:34:12;;;;;;;;;;;16.30;57.30;;;;;;5487185;26;20302;-74
2024/04/18 04:36:38;;;;;;;;;;;16.30;57.30;;;;;;5486974;26;20064;-74
2024/04/18 04:39:04;;;;;;;;;;;16.30;57.60;;;;;;5486926;26;19936;-74
2024/04/18 04:41:30;;;;;;;;;;;16.30;57.40;;;;;;5486722;26;19928;-74
2024/04/18 04:43:55;;;;;;;;;;;15.90;56.90;;;;;;5486383;26;19928;-74
2024/04/18 04:46:21;;;;;;;;;;;16.20;57.40;;;;;;5486524;26;20346;-74
2024/04/18 04:48:46;;;;;;;;;;;16.20;57.40;;;;;;5486916;26;19939;-74
2024/04/18 04:51:13;;;;;;;;;;;16.30;57.50;;;;;;5486602;26;19928;-74
2024/04/18 04:53:38;;;;;;;;;;;16.20;56.80;;;;;;5486614;26;19935;-74
2024/04/18 04:56:04;;;;;;;;;;;16.20;57.50;;;;;;5486580;26;19928;-74
2024/04/18 04:58:29;;;;;;;;;;;16.20;57.30;;;;;;5486706;26;20378;-74
2024/04/18 05:00:56;;;;;;;;;;;16.20;57.00;;;;;;5487778;26;19935;-74
2024/04/18 05:03:22;;;;;;;;;;;16.30;56.80;;;;;;5490748;26;19965;-74
2024/04/18 05:05:47;;;;;;;;;;;16.20;57.40;;;;;;5489847;26;19928;-74
2024/04/18 05:08:13;;;;;;;;;;;16.20;57.10;;;;;;5490190;26;19928;-74
2024/04/18 05:10:43;;;;;;;;;;;16.20;57.30;;;;;;5490421;26;19946;-74
2024/04/18 05:13:09;;;;;;;;;;;16.20;57.10;;;;;;5490161;26;19996;-74
2024/04/18 05:15:34;;;;;;;;;;;16.20;56.90;;;;;;5490351;26;19935;-76
2024/04/18 05:18:00;;;;;;;;;;;16.30;57.40;;;;;;5490062;26;19939;-76
2024/04/18 05:20:25;;;;;;;;;;;16.20;57.00;;;;;;5489910;26;19935;-74
2024/04/18 05:22:51;;;;;;;;;;;16.20;57.50;;;;;;5489957;26;19928;-76
2024/04/18 05:25:16;;;;;;;;;;;16.20;57.20;;;;;;5489752;26;20273;-75
2024/04/18 05:27:53;;;;;;;;;;;16.20;57.30;;;;;;5489972;26;19949;-75
2024/04/18 05:33:02;;;;;;;;;;;16.30;56.80;;;;;;5490574;26;19935;-75
2024/04/18 05:35:28;;;;;;;;;;;16.20;57.10;;;;;;5489461;26;20039;-75
2024/04/18 05:37:53;;;;;;;;;;;16.20;57.70;;;;;;5489542;26;19934;-75
2024/04/18 05:40:19;;;;;;;;;;;16.20;57.30;;;;;;5489986;26;19956;-75
2024/04/18 05:42:44;;;;;;;;;;;16.20;57.20;;;;;;5488237;26;19960;-76
2024/04/18 05:45:10;;;;;;;;;;;16.20;57.30;;;;;;5490066;26;19972;-78
2024/04/18 05:47:35;;;;;;;;;;;16.10;57.00;;;;;;5489679;26;19960;-78
2024/04/18 05:50:01;;;;;;;;;;;16.10;57.10;;;;;;5490142;26;19976;-77
2024/04/18 05:52:26;;;;;;;;;;;16.20;57.10;;;;;;5489919;26;19931;-78
2024/04/18 05:54:52;;;;;;;;;;;16.30;56.50;;;;;;5489746;26;20027;-79
2024/04/18 05:57:17;;;;;;;;;;;16.10;57.10;;;;;;5489755;26;19934;-78
2024/04/18 05:59:43;;;;;;;;;;;;;;;;;;5489836;26;20418;-78
2024/04/18 06:02:09;;;;;;;;;;;16.20;53.70;;;;;;5489678;26;19960;-76
2024/04/18 06:04:35;;;;;;;;;;;16.20;56.60;;;;;;5489508;26;19927;-76
2024/04/18 06:07:01;;;;;;;;;;;16.20;57.00;;;;;;5489020;26;20403;-76
2024/04/18 06:09:27;;;;;;;;;;;16.20;56.90;;;;;;5489359;26;19928;-76
2024/04/18 06:11:53;;;;;;;;;;;16.20;56.80;;;;;;5488860;26;19977;-75
2024/04/18 06:14:19;;;;;;;;;;;16.20;57.20;;;;;;5489216;26;19957;-75
2024/04/18 06:16:45;;;;;;;;;;;16.10;56.70;;;;;;5489516;26;20346;-75
2024/04/18 06:19:10;;;;;;;;;;;16.50;57.10;;;;;;5489627;26;19928;-76
2024/04/18 06:21:36;;;;;;;;;;;16.20;57.30;;;;;;5489215;26;20036;-76
2024/04/18 06:24:02;;;;;;;;;;;16.20;57.20;;;;;;5489207;26;19931;-76
2024/04/18 06:26:28;;;;;;;;;;;16.20;57.00;;;;;;5489381;26;19940;-76
2024/04/18 06:28:53;;;;;;;;;;;16.20;57.20;;;;;;5489850;26;20270;-75
2024/04/18 06:31:19;;;;;;;;;;;16.20;56.80;;;;;;5489379;26;19935;-75
2024/04/18 06:33:45;;;;;;;;;;;16.20;57.10;;;;;;5487365;26;19976;-76
2024/04/18 06:36:10;;;;;;;;;;;16.20;57.00;;;;;;5489431;26;19936;-76
2024/04/18 06:38:36;;;;;;;;;;;16.20;57.10;;;;;;5489399;26;19927;-75
2024/04/18 06:41:05;;;;;;;;;;;16.20;57.10;;;;;;5488980;26;19956;-75
2024/04/18 06:43:31;;;;;;;;;;;16.50;54.50;;;;;;5488918;26;19935;-76
2024/04/18 06:45:56;;;;;;;;;;;16.20;57.40;;;;;;5489085;26;19928;-76
2024/04/18 06:48:22;;;;;;;;;;;16.10;57.30;;;;;;5488656;26;19928;-75
2024/04/18 06:50:48;;;;;;;;;;;16.30;57.40;;;;;;5488641;26;19928;-77
2024/04/18 06:53:13;;;;;;;;;;;16.40;56.60;;;;;;5488635;26;19928;-77
2024/04/18 06:55:39;;;;;;;;;;;16.30;57.30;;;;;;5489033;26;19927;-77
2024/04/18 06:58:04;;;;;;;;;;;16.50;57.30;;;;;;5489039;26;20327;-77
2024/04/18 07:00:30;;;;;;;;;;;16.00;56.80;;;;;;5488911;26;19932;-76
2024/04/18 07:02:55;;;;;;;;;;;16.60;56.70;;;;;;5488483;26;19960;-75
2024/04/18 07:05:21;;;;;;;;;;;16.60;56.70;;;;;;5488233;26;19928;-75
2024/04/18 07:07:47;;;;;;;;;;;16.80;56.30;;;;;;5488004;26;19968;-75
2024/04/18 07:10:14;;;;;;;;;;;16.90;56.40;;;;;;5488545;26;19928;-75
2024/04/18 07:12:40;;;;;;;;;;;16.90;55.90;;;;;;5488165;26;20374;-76
2024/04/18 07:15:05;;;;;;;;;;;16.90;56.10;;;;;;5488559;26;19935;-76
2024/04/18 07:17:31;;;;;;;;;;;17.00;55.90;;;;;;5488199;26;19928;-75
2024/04/18 07:19:56;;;;;;;;;;;17.40;56.60;;;;;;5487942;26;19939;-75
2024/04/18 07:22:22;;;;;;;;;;;16.80;56.80;;;;;;5488242;26;20358;-76
2024/04/18 07:24:49;;;;;;;;;;;16.70;57.50;;;;;;5488272;26;19928;-77
2024/04/18 07:27:15;;;;;;;;;;;16.80;57.30;;;;;;5488612;26;20355;-75
2024/04/18 07:29:40;;;;;;;;;;;16.80;57.10;;;;;;5488077;26;19934;-75
2024/04/18 07:32:07;;;;;;;;;;;16.80;57.60;;;;;;5488078;26;19932;-75
2024/04/18 07:34:33;;;;;;;;;;;16.80;57.40;;;;;;5488237;26;19936;-75
2024/04/18 07:36:58;;;;;;;;;;;16.50;57.00;;;;;;5486124;26;19937;-75
2024/04/18 07:39:24;;;;;;;;;;;16.80;57.80;;;;;;5486168;26;20000;-75
2024/04/18 07:41:50;;;;;;;;;;;16.80;58.00;;;;;;5488104;26;19928;-75
2024/04/18 07:44:15;;;;;;;;;;;16.90;57.40;;;;;;5487866;26;19932;-75
2024/04/18 07:46:41;;;;;;;;;;;16.80;58.00;;;;;;5487965;26;19928;-75
2024/04/18 07:49:07;;;;;;;;;;;16.80;58.40;;;;;;5488082;26;19928;-75
2024/04/18 07:51:33;;;;;;;;;;;16.60;58.10;;;;;;5487827;26;20016;-75
2024/04/18 07:53:58;;;;;;;;;;;16.90;58.00;;;;;;5486339;26;19940;-75
2024/04/18 07:56:24;;;;;;;;;;;16.80;58.60;;;;;;5487695;26;19935;-75
2024/04/18 07:58:49;;;;;;;;;;;17.20;58.80;;;;;;5487461;26;19977;-75
2024/04/18 08:01:16;;;;;;;;;;;16.80;58.70;;;;;;5487873;26;19978;-76
2024/04/18 08:03:41;;;;;;;;;;;16.80;58.70;;;;;;5487843;26;19940;-76
2024/04/18 08:06:07;;;;;;;;;;;16.90;58.60;;;;;;5487576;26;19996;-75
2024/04/18 08:08:32;;;;;;;;;;;16.90;59.20;;;;;;5487235;26;19928;-76
2024/04/18 08:10:58;;;;;;;;;;;16.90;59.00;;;;;;5486938;26;19935;-74
2024/04/18 08:13:23;;;;;;;;;;;16.90;58.60;;;;;;5485657;26;19964;-75
2024/04/18 08:15:49;;;;;;;;;;;16.90;59.00;;;;;;5487201;26;19959;-76
2024/04/18 08:18:18;;;;;;;;;;;17.00;58.80;;;;;;5487568;26;19956;-75
2024/04/18 08:20:44;;;;;;;;;;;17.00;58.70;;;;;;5488123;26;19928;-74
2024/04/18 08:23:09;;;;;;;;;;;17.00;58.70;;;;;;5487597;26;19932;-76
2024/04/18 08:25:35;;;;;;;;;;;17.00;59.00;;;;;;5487350;26;19936;-75
2024/04/18 08:28:00;;;;;;;;;;;17.00;59.00;;;;;;5487241;26;19996;-75
2024/04/18 08:30:26;;;;;;;;;;;17.10;59.00;;;;;;5486903;26;20022;-75
2024/04/18 08:32:52;;;;;;;;;;;17.10;58.80;;;;;;5487097;26;19939;-75
2024/04/18 08:35:19;;;;;;;;;;;17.20;58.80;;;;;;5487283;26;19977;-75
2024/04/18 08:37:45;;;;;;;;;;;17.20;59.10;;;;;;5490739;26;19996;-75
2024/04/18 08:40:10;;;;;;;;;;;17.20;58.80;;;;;;5488980;26;19928;-75
2024/04/18 08:42:36;;;;;;;;;;;17.20;59.00;;;;;;5490720;26;19935;-78
2024/04/18 08:45:03;;;;;;;;;;;17.20;59.10;;;;;;5490728;26;19930;-78
2024/04/18 08:47:31;;;;;;;;;;;17.20;58.00;;;;;;5490573;26;19927;-77
2024/04/18 08:49:56;;;;;;;;;;;17.20;58.30;;;;;;5490713;26;19973;-75
2024/04/18 08:52:22;;;;;;;;;;;16.10;58.00;;;;;;5489048;26;19932;-75
2024/04/18 08:54:48;;;;;;;;;;;17.30;58.40;;;;;;5490702;26;19938;-75
2024/04/18 08:57:19;;;;;;;;;;;17.30;58.90;;;;;;5490322;26;19936;-75
2024/04/18 08:59:47;;;;;;;;;;;17.30;56.60;;;;;;5490454;26;19928;-75
2024/04/18 09:02:14;;;;;;;;;;;17.30;58.80;;;;;;5490418;26;19936;-75
2024/04/18 09:04:40;;;;;;;;;;;17.30;58.50;;;;;;5490249;26;19928;-75
2024/04/18 09:07:05;;;;;;;;;;;17.40;59.00;;;;;;5489864;26;19936;-75
2024/04/18 09:09:31;;;;;;;;;;;17.40;58.90;;;;;;5488477;26;19931;-75
2024/04/18 09:11:56;;;;;;;;;;;17.40;58.70;;;;;;5490156;26;20331;-75
2024/04/18 09:14:22;;;;;;;;;;;18.00;59.20;;;;;;5490498;26;19931;-75
2024/04/18 09:16:48;;;;;;;;;;;17.40;58.50;;;;;;5488201;26;19996;-75
2024/04/18 09:19:14;;;;;;;;;;;17.50;58.80;;;;;;5490346;26;19960;-83
2024/04/18 09:21:40;;;;;;;;;;;17.50;58.30;;;;;;5490133;26;19935;-83
2024/04/18 09:24:06;;;;;;;;;;;17.50;58.30;;;;;;5489961;26;19936;-83
2024/04/18 09:26:31;;;;;;;;;;;17.50;58.50;;;;;;5489910;26;19934;-83
2024/04/18 09:28:57;;;;;;;;;;;17.50;58.30;;;;;;5490186;26;19935;-81
2024/04/18 09:31:26;;;;;;;;;;;17.60;58.10;;;;;;5490111;26;19934;-81
2024/04/18 09:33:52;;;;;;;;;;;17.60;58.30;;;;;;5490329;26;20027;-81
2024/04/18 09:36:19;;;;;;;;;;;17.60;58.00;;;;;;5490190;26;20251;-80
2024/04/18 09:38:45;;;;;;;;;;;17.70;58.20;;;;;;5489889;26;19928;-80
2024/04/18 09:41:12;;;;;;;;;;;17.70;58.00;;;;;;5490011;26;19928;-81
2024/04/18 09:43:43;;;;;;;;;;;17.80;57.90;;;;;;5489972;26;19928;-80
2024/04/18 09:46:09;;;;;;;;;;;18.10;55.80;;;;;;5489692;26;19928;-80
2024/04/18 09:48:35;;;;;;;;;;;18.00;57.70;;;;;;5488635;26;20495;-81
2024/04/18 09:51:02;;;;;;;;;;;18.00;57.40;;;;;;5490174;26;19928;-79
2024/04/18 09:53:29;;;;;;;;;;;18.30;57.10;;;;;;5489617;26;19928;-80
2024/04/18 09:55:55;;;;;;;;;;;18.20;57.30;;;;;;5489524;26;19940;-79
2024/04/18 09:58:22;;;;;;;;;;;18.40;57.00;;;;;;5489523;26;19984;-83
2024/04/18 10:00:48;;;;;;;;;;;18.40;56.80;;;;;;5489912;26;20379;-80
2024/04/18 10:03:15;;;;;;;;;;;18.50;56.80;;;;;;5489803;26;19928;-80
2024/04/18 10:05:44;;;;;;;;;;;18.50;56.80;;;;;;5489813;26;19935;-81
2024/04/18 10:08:10;;;;;;;;;;;18.50;56.90;;;;;;5489078;26;19931;-81
2024/04/18 10:10:36;;;;;;;;;;;18.60;56.60;;;;;;5489303;26;19955;-82
2024/04/18 10:13:03;;;;;;;;;;;18.60;56.40;;;;;;5489617;26;19956;-82
2024/04/18 10:15:29;;;;;;;;;;;18.60;56.70;;;;;;5489469;26;19927;-82
2024/04/18 10:17:56;;;;;;;;;;;18.70;56.90;;;;;;5489832;26;19943;-82
2024/04/18 10:20:26;;;;;;;;;;;18.60;56.90;;;;;;5489225;26;19940;-82
2024/04/18 10:22:56;;;;;;;;;;;18.70;57.10;;;;;;5489113;26;19939;-80
2024/04/18 10:25:22;;;;;;;;;;;18.80;54.70;;;;;;5489207;26;19935;-80
2024/04/18 10:27:48;;;;;;;;;;;18.80;56.50;;;;;;5489194;26;20000;-80
2024/04/18 10:30:18;;;;;;;;;;;19.00;56.50;;;;;;5489132;26;19939;-80
2024/04/18 10:32:48;;;;;;;;;;;19.10;56.20;;;;;;5489775;26;19928;-81
2024/04/18 10:35:16;;;;;;;;;;;19.30;54.00;;;;;;5491463;26;20275;-83
2024/04/18 10:37:49;;;;;;;;;;;19.40;53.70;;;;;;5490494;26;20323;-80
2024/04/18 10:40:15;;;;;;;;;;;19.40;53.50;;;;;;5489225;26;19934;-78
2024/04/18 10:42:41;;;;;;;;;;;19.60;55.20;;;;;;5489034;26;19928;-78
2024/04/18 10:45:07;;;;;;;;;;;19.60;55.10;;;;;;5489497;26;20262;-78
2024/04/18 10:47:33;;;;;;;;;;;19.60;54.90;;;;;;5488758;26;19972;-78
2024/04/18 10:49:59;;;;;;;;;;;19.70;55.20;;;;;;5488733;26;19928;-79
2024/04/18 10:52:24;;;;;;;;;;;19.70;55.30;;;;;;5489066;26;19939;-82
2024/04/18 10:54:50;;;;;;;;;;;19.80;55.00;;;;;;5488873;26;20223;-80
2024/04/18 10:57:17;;;;;;;;;;;19.60;55.90;;;;;;5489303;26;19928;-80
2024/04/18 10:59:47;;;;;;;;;;;19.60;55.80;;;;;;5488326;26;19935;-81
2024/04/18 11:02:12;;;;;;;;;;;19.50;54.60;;;;;;5489064;26;19928;-81
2024/04/18 11:04:37;;;;;;;;;;;19.40;56.50;;;;;;5489098;26;19928;-82
2024/04/18 11:07:03;;;;;;;;;;;19.50;56.60;;;;;;5488415;26;19928;-82
2024/04/18 11:09:29;;;;;;;;;;;19.60;56.20;;;;;;5488690;26;19935;-84
2024/04/18 11:11:55;;;;;;;;;;;19.80;56.20;;;;;;5488401;26;19954;-80
2024/04/18 11:14:25;;;;;;;;;;;19.70;55.90;;;;;;5488967;26;19940;-77
2024/04/18 11:16:57;;;;;;;;;;;19.80;54.50;;;;;;5488680;26;20374;-81
2024/04/18 11:19:23;;;;;;;;;;;19.80;53.80;;;;;;5488753;26;19952;-84
2024/04/18 11:21:48;;;;;;;;;;;19.70;55.70;;;;;;5488288;26;19935;-85
2024/04/18 11:24:14;;;;;;;;;;;19.80;56.30;;;;;;5488523;26;19934;-84
2024/04/18 11:26:39;;;;;;;;;;;19.90;56.10;;;;;;5488541;26;20377;-84
2024/04/18 11:29:06;;;;;;;;;;;20.20;55.80;;;;;;5488428;26;19928;-85
2024/04/18 11:31:32;;;;;;;;;;;20.20;55.30;;;;;;5486588;26;19932;-85
2024/04/18 11:33:58;;;;;;;;;;;19.70;54.70;;;;;;5488857;26;19928;-85
2024/04/18 11:36:24;;;;;;;;;;;20.50;55.00;;;;;;5488164;26;19931;-84
2024/04/18 11:38:50;;;;;;;;;;;20.50;54.40;;;;;;5488429;26;19996;-85
2024/04/18 11:41:17;;;;;;;;;;;20.60;54.50;;;;;;5488716;26;20291;-85
2024/04/18 11:43:43;;;;;;;;;;;20.70;53.40;;;;;;5488555;26;19935;-84
2024/04/18 11:46:09;;;;;;;;;;;20.80;53.50;;;;;;5487846;26;19935;-84
2024/04/18 11:48:35;;;;;;;;;;;20.90;53.40;;;;;;5487793;26;19935;-80
2024/04/18 11:51:00;;;;;;;;;;;21.10;53.60;;;;;;5487651;26;19928;-80
2024/04/18 11:53:26;;;;;;;;;;;21.20;53.10;;;;;;5485650;26;19982;-81
2024/04/18 11:55:51;;;;;;;;;;;21.20;53.70;;;;;;5487656;26;19928;-81
2024/04/18 11:58:17;;;;;;;;;;;20.70;52.90;;;;;;5487476;26;19939;-81
2024/04/18 12:00:43;;;;;;;;;;;21.40;53.00;;;;;;5487595;26;19928;-82
2024/04/18 12:03:09;;;;;;;;;;;21.20;53.10;;;;;;5487484;26;19934;-82
2024/04/18 12:05:35;;;;;;;;;;;21.40;52.40;;;;;;5486187;26;20573;-81
2024/04/18 12:08:01;;;;;;;;;;;21.50;52.50;;;;;;5487494;26;19956;-82
2024/04/18 12:10:27;;;;;;;;;;;21.60;52.30;;;;;;5486936;26;19997;-81
2024/04/18 12:12:52;;;;;;;;;;;21.80;51.90;;;;;;5487627;26;19936;-81
2024/04/18 12:15:18;;;;;;;;;;;21.80;51.90;;;;;;5487934;26;20000;-82
2024/04/18 12:17:44;;;;;;;;;;;21.80;52.10;;;;;;5487843;26;19935;-82
2024/04/18 12:20:10;;;;;;;;;;;21.70;52.20;;;;;;5487758;26;19972;-83
2024/04/18 12:22:36;;;;;;;;;;;21.30;52.10;;;;;;5487751;26;19927;-82
2024/04/18 12:25:03;;;;;;;;;;;21.60;52.20;;;;;;5487485;26;19927;-82
2024/04/18 12:27:29;;;;;;;;;;;21.50;52.20;;;;;;5487244;26;19932;-83
2024/04/18 12:29:55;;;;;;;;;;;21.50;52.80;;;;;;5487419;26;19932;-82
2024/04/18 12:32:21;;;;;;;;;;;21.40;53.00;;;;;;5485617;26;20363;-82
2024/04/18 12:34:50;;;;;;;;;;;21.30;52.80;;;;;;5487256;26;19935;-83
2024/04/18 12:37:17;;;;;;;;;;;21.40;51.00;;;;;;5487495;26;19928;-82
2024/04/18 12:39:44;;;;;;;;;;;21.50;52.70;;;;;;5487874;26;20257;-83
2024/04/18 12:42:10;;;;;;;;;;;21.40;52.50;;;;;;5487520;26;19937;-83
2024/04/18 12:44:36;;;;;;;;;;;21.30;52.60;;;;;;5487695;26;19935;-83
2024/04/18 12:47:02;;;;;;;;;;;21.20;53.00;;;;;;5486819;26;19928;-83
2024/04/18 12:49:27;;;;;;;;;;;21.10;53.30;;;;;;5486970;26;20358;-83
2024/04/18 12:51:54;;;;;;;;;;;21.00;53.60;;;;;;5487124;26;19955;-83
2024/04/18 12:54:19;;;;;;;;;;;21.00;53.50;;;;;;5486954;26;19935;-83
2024/04/18 12:56:47;;;;;;;;;;;20.80;54.00;;;;;;5487021;26;19928;-83
2024/04/18 12:59:13;;;;;;;;;;;20.30;54.10;;;;;;5486749;26;19996;-83
2024/04/18 13:01:40;;;;;;;;;;;20.70;54.50;;;;;;5486655;26;19931;-83
2024/04/18 13:04:06;;;;;;;;;;;20.60;54.50;;;;;;5486296;26;19928;-83
2024/04/18 13:06:32;;;;;;;;;;;20.50;54.90;;;;;;5486298;26;20079;-83
2024/04/18 13:08:58;;;;;;;;;;;20.50;55.10;;;;;;5487193;26;19928;-82
2024/04/18 13:11:24;;;;;;;;;;;20.40;55.20;;;;;;5486851;26;19938;-83
2024/04/18 13:13:50;;;;;;;;;;;20.40;55.10;;;;;;5486739;26;19974;-81
2024/04/18 13:16:15;;;;;;;;;;;20.50;55.40;;;;;;5487025;26;19928;-85
2024/04/18 13:18:42;;;;;;;;;;;20.50;54.90;;;;;;5486749;26;19935;-78
2024/04/18 13:21:08;;;;;;;;;;;20.60;54.70;;;;;;5486938;26;19928;-77
2024/04/18 13:23:33;;;;;;;;;;;20.60;55.10;;;;;;5490253;26;20381;-75
2024/04/18 13:26:02;;;;;;;;;;;20.60;54.80;;;;;;5490254;26;19936;-75
2024/04/18 13:28:27;;;;;;;;;;;20.50;54.00;;;;;;5490355;26;19932;-75
2024/04/18 13:30:53;;;;;;;;;;;20.50;54.90;;;;;;5490145;26;19997;-77
2024/04/18 13:33:18;;;;;;;;;;;20.50;54.80;;;;;;5490266;26;19965;-74
2024/04/18 13:35:47;;;;;;;;;;;20.50;54.80;;;;;;5490450;26;19939;-75
2024/04/18 13:38:13;;;;;;;;;;;20.50;53.20;;;;;;5490077;26;19936;-76
2024/04/18 13:40:38;;;;;;;;;;;20.60;54.90;;;;;;5490202;26;19928;-77
2024/04/18 13:43:04;;;;;;;;;;;20.60;54.80;;;;;;5490058;26;19935;-75
2024/04/18 13:45:30;;;;;;;;;;;20.70;54.80;;;;;;5490001;26;19934;-75
2024/04/18 13:47:55;;;;;;;;;;;20.80;54.10;;;;;;5489746;26;20302;-75
2024/04/18 13:50:21;;;;;;;;;;;21.10;53.70;;;;;;5489909;26;19928;-74
2024/04/18 13:52:46;;;;;;;;;;;21.30;53.20;;;;;;5489962;26;20017;-74
2024/04/18 13:55:12;;;;;;;;;;;21.40;52.90;;;;;;5489439;26;19996;-76
2024/04/18 13:57:37;;;;;;;;;;;21.30;52.80;;;;;;5489635;26;20373;-74
2024/04/18 14:00:03;;;;;;;;;;;21.30;52.90;;;;;;5489828;26;19928;-80
2024/04/18 14:02:29;;;;;;;;;;;21.40;52.30;;;;;;5489697;26;19935;-75
2024/04/18 14:04:54;;;;;;;;;;;21.50;52.50;;;;;;5489903;26;19936;-75
2024/04/18 14:07:20;;;;;;;;;;;21.40;52.40;;;;;;5488886;26;19928;-75
2024/04/18 14:09:45;;;;;;;;;;;22.20;52.60;;;;;;5488827;26;19934;-75
2024/04/18 14:12:11;;;;;;;;;;;21.20;52.50;;;;;;5489148;26;19943;-73
2024/04/18 14:14:37;;;;;;;;;;;20.70;52.40;;;;;;5488857;26;19934;-73